Time;durP1;ratioP1;P1;durP2;ratioP2;P2;SDS_P1;SDS_P2;PMS_P1;PMS_P2;Temp;Humidity;BMP_temperature;BMP_pressure;BME280_temperature;BME280_humidity;BME280_pressure;Samples;Min_cycle;Max_cycle;Signal;HPM_P1;HPM_P2
2023/02/15 00:02:04;;;;;;;3.85;0.93;;;28.90;90.20;;;;;;5009765;28;20045;-58
2023/02/15 00:04:46;;;;;;;4.35;0.98;;;29.40;84.80;;;;;;5009526;28;20034;-59
2023/02/15 00:07:15;;;;;;;4.63;1.00;;;30.00;89.20;;;;;;5009457;28;20031;-58
2023/02/15 00:09:45;;;;;;;3.17;0.90;;;30.10;79.80;;;;;;5009534;28;20545;-59
2023/02/15 00:12:12;;;;;;;3.30;0.80;;;29.50;76.80;;;;;;5009432;28;20100;-59
2023/02/15 00:14:39;;;;;;;4.53;1.15;;;28.70;81.90;;;;;;5008377;28;20042;-59
2023/02/15 00:17:07;;;;;;;4.28;1.10;;;28.60;87.60;;;;;;5008566;28;20033;-59
2023/02/15 00:19:34;;;;;;;3.90;0.88;;;28.70;91.00;;;;;;5008902;28;20021;-59
2023/02/15 00:22:02;;;;;;;5.00;0.93;;;29.10;90.10;;;;;;5008979;28;20091;-59
2023/02/15 00:24:29;;;;;;;4.93;0.90;;;29.30;85.90;;;;;;5008427;28;20057;-60
2023/02/15 00:26:57;;;;;;;6.97;1.40;;;29.00;83.10;;;;;;5009803;28;20049;-59
2023/02/15 00:29:24;;;;;;;4.85;0.90;;;28.90;87.10;;;;;;4995074;28;20034;-59
2023/02/15 00:31:53;;;;;;;4.03;1.00;;;29.20;80.70;;;;;;5012835;28;20484;-58
2023/02/15 00:34:22;;;;;;;4.70;1.27;;;29.00;83.50;;;;;;5012708;28;20022;-59
2023/02/15 00:36:50;;;;;;;5.10;1.20;;;29.30;84.30;;;;;;5012385;28;20045;-59
2023/02/15 00:39:18;;;;;;;2.75;1.02;;;29.70;80.70;;;;;;5012411;28;20029;-57
2023/02/15 00:41:46;;;;;;;6.13;1.30;;;30.10;82.50;;;;;;5012415;28;20060;-57
2023/02/15 00:44:16;;;;;;;4.38;0.90;;;30.40;82.30;;;;;;5012210;28;20399;-57
2023/02/15 00:46:43;;;;;;;4.35;1.65;;;30.20;79.80;;;;;;5012550;28;20028;-57
2023/02/15 00:49:11;;;;;;;4.22;1.00;;;30.10;81.30;;;;;;5012069;28;21475;-57
2023/02/15 00:51:39;;;;;;;2.92;1.00;;;30.00;79.10;;;;;;5012424;28;20033;-57
2023/02/15 00:54:07;;;;;;;7.72;1.70;;;29.70;82.60;;;;;;5012395;28;20022;-58
2023/02/15 00:56:34;;;;;;;5.20;1.08;;;29.40;82.90;;;;;;5012119;28;20589;-58
2023/02/15 00:59:02;;;;;;;4.15;1.60;;;29.30;79.80;;;;;;5012059;28;20072;-58
2023/02/15 01:01:29;;;;;;;3.15;1.08;;;29.40;81.80;;;;;;5012585;28;20116;-58
2023/02/15 01:03:56;;;;;;;3.33;0.80;;;29.40;80.70;;;;;;5012466;28;20068;-58
2023/02/15 01:06:24;;;;;;;6.15;1.67;;;29.30;80.10;;;;;;4994616;28;20045;-58
2023/02/15 01:08:51;;;;;;;4.13;1.20;;;29.50;82.10;;;;;;5012027;28;20026;-58
2023/02/15 01:11:22;;;;;;;3.35;1.10;;;30.00;75.20;;;;;;5011620;28;20133;-58
2023/02/15 01:13:57;;;;;;;3.47;0.90;;;30.10;80.70;;;;;;5011707;28;20542;-58
2023/02/15 01:16:28;;;;;;;4.72;1.13;;;30.40;78.40;;;;;;5011656;28;20087;-58
2023/02/15 01:18:56;;;;;;;5.57;1.30;;;30.00;76.30;;;;;;5012330;28;20068;-58
2023/02/15 01:21:26;;;;;;;5.43;1.40;;;30.10;78.90;;;;;;5011640;28;20044;-58
2023/02/15 01:23:53;;;;;;;3.47;1.15;;;30.40;78.10;;;;;;5011754;28;20483;-59
2023/02/15 01:26:21;;;;;;;4.13;1.10;;;30.80;77.60;;;;;;5011629;28;20084;-58
2023/02/15 01:28:49;;;;;;;6.55;1.52;;;31.10;73.10;;;;;;5011631;28;20383;-58
2023/02/15 01:31:18;;;;;;;6.40;1.00;;;30.40;68.90;;;;;;5011602;28;20022;-59
2023/02/15 01:33:47;;;;;;;6.32;1.00;;;30.30;76.10;;;;;;5011379;28;20037;-59
2023/02/15 01:36:17;;;;;;;3.88;1.13;;;30.30;77.10;;;;;;5011349;28;20481;-59
2023/02/15 01:38:44;;;;;;;5.03;1.30;;;30.10;75.50;;;;;;5009920;28;20068;-59
2023/02/15 01:41:23;;;;;;;6.15;1.30;;;29.90;77.80;;;;;;5011358;28;20376;-58
2023/02/15 01:43:54;;;;;;;2.45;1.10;;;29.80;75.10;;;;;;5011358;28;20531;-59
2023/02/15 01:46:35;;;;;;;3.17;0.90;;;29.70;75.30;;;;;;5011175;28;20480;-58
2023/02/15 01:49:21;;;;;;;4.95;1.25;;;30.00;79.80;;;;;;4993638;28;20026;-59
2023/02/15 01:51:52;;;;;;;4.47;1.05;;;30.50;71.60;;;;;;5011173;28;20487;-58
2023/02/15 01:54:27;;;;;;;7.90;1.73;;;30.20;79.20;;;;;;5010874;28;20129;-58
2023/02/15 01:56:58;;;;;;;4.15;0.88;;;30.70;79.10;;;;;;5010790;28;20125;-59
2023/02/15 01:59:26;;;;;;;4.40;1.08;;;31.20;75.40;;;;;;5011504;28;20097;-58
2023/02/15 02:01:58;;;;;;;5.68;1.48;;;31.60;77.10;;;;;;5011180;28;20030;-59
2023/02/15 02:04:29;;;;;;;2.67;1.27;;;31.80;69.10;;;;;;5010777;28;20482;-59
2023/02/15 02:06:59;;;;;;;4.97;1.40;;;31.90;65.70;;;;;;5011167;28;20084;-59
2023/02/15 02:09:27;;;;;;;6.97;1.08;;;31.20;67.90;;;;;;5011128;28;20382;-60
2023/02/15 02:11:55;;;;;;;2.42;1.00;;;31.10;71.60;;;;;;5010978;28;20456;-59
2023/02/15 02:14:23;;;;;;;3.67;1.30;;;31.20;70.00;;;;;;5010466;28;20068;-59
2023/02/15 02:16:59;;;;;;;4.28;1.40;;;31.10;67.80;;;;;;5010225;28;20064;-59
2023/02/15 02:20:05;;;;;;;2.92;1.08;;;31.20;65.90;;;;;;5011065;28;20607;-59
2023/02/15 02:22:47;;;;;;;2.25;1.15;;;31.70;65.20;;;;;;5009973;28;20101;-67
2023/02/15 02:25:43;;;;;;;3.33;1.45;;;31.30;63.80;;;;;;5010015;28;20041;-65
2023/02/15 02:28:36;;;;;;;4.32;1.50;;;31.20;67.60;;;;;;5010430;28;20033;-62
2023/02/15 02:31:28;;;;;;;5.18;1.42;;;31.40;69.50;;;;;;5010069;28;20034;-63
2023/02/15 02:34:01;;;;;;;2.40;1.42;;;31.90;65.10;;;;;;5011019;28;20030;-62
2023/02/15 02:36:53;;;;;;;7.15;1.45;;;31.70;63.90;;;;;;5011158;28;20038;-62
2023/02/15 02:39:57;;;;;;;4.35;1.20;;;31.90;62.60;;;;;;5010319;28;20030;-62
2023/02/15 02:42:38;;;;;;;3.63;1.17;;;32.00;68.70;;;;;;5010235;28;20033;-62
2023/02/15 02:45:40;;;;;;;3.55;1.17;;;31.50;63.50;;;;;;4992612;28;20036;-63
2023/02/15 02:48:19;;;;;;;3.80;1.25;;;30.60;63.00;;;;;;5010297;28;20017;-62
2023/02/15 02:50:46;;;;;;;4.88;1.38;;;30.30;65.10;;;;;;5009913;28;20029;-62
2023/02/15 02:53:14;;;;;;;6.43;1.45;;;30.00;67.50;;;;;;5009874;28;20030;-63
2023/02/15 02:56:10;;;;;;;6.63;2.03;;;29.70;67.40;;;;;;5009639;28;20034;-63
2023/02/15 02:58:45;;;;;;;5.38;1.80;;;29.60;66.60;;;;;;5006840;28;20495;-62
2023/02/15 03:01:33;;;;;;;5.63;1.73;;;29.10;69.40;;;;;;5010246;28;20035;-63
2023/02/15 03:04:16;;;;;;;3.95;1.40;;;28.90;68.70;;;;;;5010006;28;20098;-64
2023/02/15 03:06:53;;;;;;;4.13;2.65;;;28.80;70.10;;;;;;5009313;28;20494;-62
2023/02/15 03:09:34;;;;;;;4.10;1.50;;;28.80;70.00;;;;;;5009181;28;20030;-62
2023/02/15 03:12:05;;;;;;;5.38;1.30;;;28.70;71.70;;;;;;5009554;28;20396;-63
2023/02/15 03:14:32;;;;;;;5.65;1.48;;;28.40;69.60;;;;;;5009568;28;20050;-63
2023/02/15 03:17:01;;;;;;;5.88;1.50;;;28.30;71.60;;;;;;5010374;28;20092;-63
2023/02/15 03:19:32;;;;;;;5.45;1.80;;;28.00;72.10;;;;;;5010182;28;20030;-63
2023/02/15 03:22:14;;;;;;;4.45;1.70;;;27.90;72.40;;;;;;5010164;28;20030;-62
2023/02/15 03:24:51;;;;;;;5.47;2.05;;;27.70;75.40;;;;;;5009783;28;20101;-63
2023/02/15 03:27:24;;;;;;;5.15;1.30;;;27.70;75.50;;;;;;5009803;28;20026;-63
2023/02/15 03:29:58;;;;;;;4.30;1.40;;;28.10;77.00;;;;;;5009874;28;20430;-63
2023/02/15 03:32:28;;;;;;;7.72;1.50;;;28.20;75.10;;;;;;4993361;28;20249;-63
2023/02/15 03:34:56;;;;;;;2.95;1.48;;;28.20;73.60;;;;;;5010070;28;20076;-63
2023/02/15 03:37:44;;;;;;;6.10;1.60;;;28.20;73.80;;;;;;5009376;28;20069;-64
2023/02/15 03:43:33;;;;;;;3.00;1.85;;;29.40;72.70;;;;;;5009534;28;20111;-63
2023/02/15 03:46:33;;;;;;;2.92;1.42;;;30.10;71.80;;;;;;5009549;28;20494;-64
2023/02/15 03:49:13;;;;;;;3.08;1.65;;;30.70;66.20;;;;;;5005941;28;20041;-64
2023/02/15 03:51:44;;;;;;;4.50;1.48;;;31.10;68.30;;;;;;5009145;28;20045;-64
2023/02/15 04:03:49;;;;;;;3.30;1.23;;;31.10;64.30;;;;;;5011302;28;20041;-64
2023/02/15 04:06:16;;;;;;;2.63;1.50;;;31.10;64.00;;;;;;4952610;29;20036;-63
2023/02/15 04:11:29;;;;;;;5.53;1.45;;;31.10;64.20;;;;;;4990340;28;20065;-63
2023/02/15 04:13:57;;;;;;;7.82;1.70;;;31.60;63.50;;;;;;4992198;28;20145;-63
2023/02/15 04:16:25;;;;;;;4.20;1.83;;;32.10;62.10;;;;;;4993187;28;20034;-63
2023/02/15 04:27:08;;;;;;;3.72;1.10;;;32.00;61.30;;;;;;4985458;28;20157;-63
2023/02/15 04:29:35;;;;;;;10.07;1.30;;;31.30;66.10;;;;;;4991873;28;20061;-63
2023/02/15 04:32:03;;;;;;;5.47;1.45;;;31.10;67.80;;;;;;4993160;28;20026;-63
2023/02/15 04:34:30;;;;;;;5.32;1.75;;;30.90;69.20;;;;;;4992922;28;20161;-63
2023/02/15 04:36:58;;;;;;;5.55;1.35;;;30.30;66.60;;;;;;4993151;28;20045;-63
2023/02/15 04:39:25;;;;;;;4.10;1.50;;;29.80;68.80;;;;;;4993145;28;20077;-63
2023/02/15 04:41:53;;;;;;;4.60;1.52;;;29.80;70.00;;;;;;4993030;28;20026;-63
2023/02/15 04:44:20;;;;;;;6.63;1.58;;;30.10;68.10;;;;;;4992937;28;20034;-63
2023/02/15 04:46:48;;;;;;;3.83;1.63;;;30.40;67.90;;;;;;4991956;28;20364;-63
2023/02/15 04:49:15;;;;;;;3.45;1.17;;;30.60;67.00;;;;;;4992840;28;20469;-63
2023/02/15 04:51:42;;;;;;;6.43;1.60;;;30.40;66.40;;;;;;4992814;28;20060;-63
2023/02/15 04:54:10;;;;;;;3.58;1.38;;;30.20;68.60;;;;;;4992444;28;20376;-63
2023/02/15 04:56:38;;;;;;;8.13;1.60;;;30.10;67.60;;;;;;4992643;28;20038;-63
2023/02/15 04:59:06;;;;;;;4.25;1.50;;;29.90;66.80;;;;;;4991207;28;20494;-63
2023/02/15 05:01:33;;;;;;;5.25;1.50;;;30.00;69.80;;;;;;4992730;28;20447;-64
2023/02/15 05:04:01;;;;;;;3.90;1.30;;;30.10;68.10;;;;;;4992667;28;20021;-63
2023/02/15 05:06:28;;;;;;;4.15;1.42;;;30.20;71.40;;;;;;4992938;28;20488;-63
2023/02/15 05:08:58;;;;;;;5.22;1.83;;;30.50;71.70;;;;;;4991283;28;20092;-63
2023/02/15 05:11:26;;;;;;;3.42;1.50;;;30.40;70.30;;;;;;4991391;28;20070;-63
2023/02/15 05:13:54;;;;;;;5.68;1.33;;;30.40;69.80;;;;;;4997493;28;20081;-63
2023/02/15 05:16:21;;;;;;;5.90;1.45;;;30.40;68.90;;;;;;5011731;28;20037;-63
2023/02/15 05:18:49;;;;;;;5.88;1.45;;;30.20;72.40;;;;;;5011699;28;20018;-64
2023/02/15 05:21:16;;;;;;;3.15;1.30;;;30.10;73.10;;;;;;5011858;28;20079;-63
2023/02/15 05:23:44;;;;;;;4.90;1.50;;;30.10;73.90;;;;;;5011666;28;20030;-63
2023/02/15 05:29:05;;;;;;;4.70;1.85;;;29.60;78.20;;;;;;5012052;28;20077;-64
2023/02/15 05:31:33;;;;;;;7.85;1.90;;;29.90;76.60;;;;;;5011511;28;20026;-63
2023/02/15 05:34:01;;;;;;;7.22;1.80;;;30.10;74.20;;;;;;5011953;28;20026;-64
2023/02/15 05:36:29;;;;;;;9.57;2.10;;;30.00;74.90;;;;;;5012001;28;20399;-63
2023/02/15 05:38:57;;;;;;;7.65;1.90;;;30.00;74.10;;;;;;5011659;28;20049;-63
2023/02/15 05:41:25;;;;;;;11.57;2.15;;;30.00;75.20;;;;;;5011518;28;20098;-63
2023/02/15 05:43:55;;;;;;;6.78;2.03;;;29.70;74.20;;;;;;5010980;28;20386;-63
2023/02/15 05:46:22;;;;;;;5.05;1.55;;;29.30;74.30;;;;;;5011211;28;20116;-63
2023/02/15 05:48:49;;;;;;;7.13;1.95;;;29.30;75.80;;;;;;5011475;28;20022;-64
2023/02/15 05:51:17;;;;;;;5.35;1.80;;;29.50;76.00;;;;;;5011008;28;20026;-63
2023/02/15 05:53:44;;;;;;;6.00;1.85;;;29.30;74.00;;;;;;5011076;28;20092;-63
2023/02/15 05:56:12;;;;;;;8.57;2.10;;;29.10;76.50;;;;;;5010349;28;20390;-63
2023/02/15 05:58:41;;;;;;;5.88;1.80;;;28.80;76.40;;;;;;5011004;28;20104;-63
2023/02/15 06:01:21;;;;;;;5.10;1.60;;;28.60;77.60;;;;;;4993285;28;20096;-63
2023/02/15 06:03:49;;;;;;;4.85;1.80;;;28.60;76.90;;;;;;5010729;28;20390;-63
2023/02/15 06:06:17;;;;;;;5.68;1.83;;;28.50;78.10;;;;;;5010688;28;20106;-63
2023/02/15 06:08:44;;;;;;;3.50;1.30;;;28.50;78.60;;;;;;5010914;28;20084;-64
2023/02/15 06:11:12;;;;;;;5.65;1.95;;;28.60;78.90;;;;;;5011087;28;20029;-63
2023/02/15 06:13:39;;;;;;;6.45;1.77;;;28.40;78.70;;;;;;5010354;28;20483;-63
2023/02/15 06:16:07;;;;;;;7.05;1.80;;;28.40;79.30;;;;;;5010432;28;20045;-64
2023/02/15 06:18:35;;;;;;;8.63;1.58;;;28.40;80.30;;;;;;4993130;28;20407;-64
2023/02/15 06:21:03;;;;;;;6.45;1.63;;;28.50;80.90;;;;;;5010758;28;20037;-64
2023/02/15 06:23:30;;;;;;;14.68;1.50;;;28.60;82.10;;;;;;5011091;28;20018;-63
2023/02/15 06:25:58;;;;;;;8.07;2.03;;;28.70;80.10;;;;;;5010201;28;20029;-64
2023/02/15 06:28:25;;;;;;;6.70;1.77;;;28.40;81.00;;;;;;5010739;28;20018;-64
2023/02/15 06:30:53;;;;;;;8.40;1.52;;;28.40;81.90;;;;;;5010498;28;20037;-64
2023/02/15 06:33:21;;;;;;;5.32;1.52;;;28.60;79.60;;;;;;5010476;28;20018;-64
2023/02/15 06:35:48;;;;;;;4.70;1.58;;;28.70;79.90;;;;;;5010145;28;20041;-63
2023/02/15 06:38:15;;;;;;;10.10;1.48;;;28.70;81.00;;;;;;5010252;28;20384;-63
2023/02/15 06:40:43;;;;;;;5.85;1.50;;;28.30;79.70;;;;;;5010322;28;20438;-63
2023/02/15 06:43:10;;;;;;;15.85;1.85;;;28.10;81.90;;;;;;4992846;28;20033;-63
2023/02/15 06:45:37;;;;;;;6.68;1.50;;;27.70;82.90;;;;;;5009976;28;20037;-63
2023/02/15 06:48:07;;;;;;;9.85;2.03;;;27.40;84.80;;;;;;4992690;28;20539;-63
2023/02/15 06:50:35;;;;;;;4.15;1.30;;;27.00;86.10;;;;;;5010328;28;20034;-64
2023/02/15 06:53:03;;;;;;;8.70;1.27;;;26.80;88.30;;;;;;5009558;28;20083;-64
2023/02/15 06:55:31;;;;;;;7.15;1.83;;;26.60;89.20;;;;;;5009575;28;20064;-63
2023/02/15 06:57:58;;;;;;;7.00;1.42;;;26.30;90.40;;;;;;5009828;28;20022;-63
2023/02/15 07:00:26;;;;;;;8.48;1.50;;;26.20;91.20;;;;;;5009280;28;20033;-62
2023/02/15 07:02:57;;;;;;;6.28;1.60;;;26.10;91.60;;;;;;5009458;28;20034;-62
2023/02/15 07:05:30;;;;;;;6.18;1.70;;;26.00;92.00;;;;;;5009223;28;20030;-64
2023/02/15 07:07:58;;;;;;;6.20;1.70;;;26.20;92.00;;;;;;5009406;28;20525;-63
2023/02/15 07:10:27;;;;;;;9.52;1.98;;;26.40;91.40;;;;;;4991739;28;20034;-64
2023/02/15 07:12:54;;;;;;;8.40;2.10;;;26.70;91.40;;;;;;5009157;28;20423;-63
2023/02/15 07:15:23;;;;;;;10.13;2.00;;;26.80;90.30;;;;;;5007922;28;20046;-62
2023/02/15 07:17:50;;;;;;;4.90;1.38;;;26.70;90.20;;;;;;4991209;28;20053;-63
2023/02/15 07:20:21;;;;;;;7.82;1.38;;;26.80;90.20;;;;;;5008233;28;20394;-64
2023/02/15 07:22:49;;;;;;;7.40;1.65;;;26.80;90.80;;;;;;5009157;28;20064;-64
2023/02/15 07:25:17;;;;;;;6.55;1.70;;;26.90;89.60;;;;;;5008907;28;20030;-63
2023/02/15 07:27:45;;;;;;;9.13;2.10;;;26.90;90.00;;;;;;5009230;28;20112;-64
2023/02/15 07:30:15;;;;;;;3.70;1.35;;;27.00;89.50;;;;;;5009268;28;20105;-63
2023/02/15 07:35:28;;;;;;;4.13;1.08;;;26.80;87.40;;;;;;5009228;28;20092;-64
2023/02/15 07:37:56;;;;;;;6.22;1.20;;;26.60;88.20;;;;;;5012936;28;20084;-63
2023/02/15 07:40:25;;;;;;;4.90;1.48;;;26.40;88.30;;;;;;5012970;28;20037;-63
2023/02/15 07:42:54;;;;;;;13.70;2.33;;;26.30;88.10;;;;;;5013214;28;20065;-63
2023/02/15 07:45:22;;;;;;;6.63;1.15;;;26.20;89.70;;;;;;5012816;28;20464;-63
2023/02/15 07:47:49;;;;;;;8.85;1.52;;;26.10;90.20;;;;;;5013059;28;20026;-63
2023/02/15 07:50:17;;;;;;;4.05;1.17;;;25.90;90.30;;;;;;5012865;28;20085;-64
2023/02/15 07:52:44;;;;;;;6.32;1.45;;;25.80;90.60;;;;;;5012644;28;20026;-64
2023/02/15 07:55:12;;;;;;;4.38;1.40;;;25.80;90.70;;;;;;5012747;28;20018;-63
2023/02/15 07:57:46;;;;;;;9.45;1.30;;;25.60;90.60;;;;;;5012771;28;20025;-63
2023/02/15 08:00:19;;;;;;;7.07;1.00;;;25.50;90.60;;;;;;5012608;28;20112;-64
2023/02/15 08:03:12;;;;;;;13.20;1.95;;;25.40;90.60;;;;;;4995033;28;20093;-64
2023/02/15 08:05:44;;;;;;;7.65;1.27;;;25.20;90.80;;;;;;5012269;28;20376;-64
2023/02/15 08:08:30;;;;;;;4.53;0.98;;;25.10;90.50;;;;;;5012509;28;20018;-64
2023/02/15 08:11:28;;;;;;;4.47;0.90;;;25.00;90.80;;;;;;5012429;28;20497;-64
2023/02/15 08:13:59;;;;;;;6.22;1.00;;;24.80;90.90;;;;;;5011991;28;20399;-63
2023/02/15 08:16:33;;;;;;;5.30;1.02;;;24.70;91.00;;;;;;5012239;28;20052;-64
2023/02/15 08:19:04;;;;;;;5.90;1.40;;;24.60;91.10;;;;;;5012896;28;20044;-63
2023/02/15 08:21:32;;;;;;;8.77;1.27;;;24.40;91.40;;;;;;5012666;28;20403;-63
2023/02/15 08:24:00;;;;;;;6.50;1.33;;;24.30;91.30;;;;;;5012222;28;20029;-64
2023/02/15 08:26:29;;;;;;;7.82;2.08;;;24.20;91.60;;;;;;5012230;28;20442;-64
2023/02/15 08:28:57;;;;;;;7.13;1.45;;;24.00;91.80;;;;;;5011979;28;20387;-64
2023/02/15 08:31:25;;;;;;;5.28;1.38;;;23.90;91.70;;;;;;5012219;28;20030;-64
2023/02/15 08:33:55;;;;;;;7.07;1.00;;;23.80;91.90;;;;;;5011924;28;20026;-63
2023/02/15 08:36:25;;;;;;;4.55;1.10;;;23.70;92.40;;;;;;4994352;28;20048;-64
2023/02/15 08:38:53;;;;;;;7.65;1.30;;;23.60;92.50;;;;;;4994338;28;20029;-64
2023/02/15 08:41:25;;;;;;;6.40;1.42;;;23.50;93.20;;;;;;5011915;28;20573;-64
2023/02/15 08:43:55;;;;;;;9.63;1.65;;;23.40;93.30;;;;;;5011855;28;20521;-63
2023/02/15 08:46:25;;;;;;;5.45;1.35;;;23.30;93.80;;;;;;5011907;28;20025;-63
2023/02/15 08:48:53;;;;;;;4.53;1.00;;;23.30;94.00;;;;;;5011074;28;20387;-63
2023/02/15 08:51:35;;;;;;;5.32;1.40;;;23.20;94.50;;;;;;5011415;28;20108;-64
2023/02/15 08:54:11;;;;;;;8.85;2.20;;;23.10;94.80;;;;;;5012048;28;20029;-63
2023/02/15 08:56:40;;;;;;;6.25;2.15;;;23.00;94.70;;;;;;5011260;28;20092;-63
2023/02/15 08:59:12;;;;;;;11.15;1.98;;;23.00;95.10;;;;;;5011607;28;20025;-63
2023/02/15 09:01:39;;;;;;;6.90;2.88;;;22.90;95.10;;;;;;5011596;28;20383;-64
2023/02/15 09:04:12;;;;;;;9.00;2.63;;;22.80;95.60;;;;;;5011234;28;20060;-64
2023/02/15 09:06:41;;;;;;;5.90;1.60;;;22.70;96.20;;;;;;5011274;28;20555;-64
2023/02/15 09:09:09;;;;;;;13.65;3.47;;;22.60;96.70;;;;;;5011306;28;20060;-64
2023/02/15 09:11:42;;;;;;;12.35;2.63;;;22.50;97.30;;;;;;4993670;28;20030;-64
2023/02/15 09:14:15;;;;;;;6.38;1.58;;;22.40;97.60;;;;;;4993595;28;20079;-64
2023/02/15 09:16:46;;;;;;;10.73;1.93;;;22.30;98.30;;;;;;5011671;28;20041;-64
2023/02/15 09:19:13;;;;;;;10.20;2.10;;;22.20;98.90;;;;;;5010975;28;20392;-64
2023/02/15 09:21:41;;;;;;;7.40;0.98;;;22.10;98.80;;;;;;5011148;28;20487;-63
2023/02/15 09:24:11;;;;;;;6.75;1.27;;;22.10;99.20;;;;;;5011001;28;20076;-63
2023/02/15 09:26:42;;;;;;;6.43;1.90;;;22.10;99.70;;;;;;5011256;28;20095;-63
2023/02/15 09:29:11;;;;;;;7.57;1.25;;;22.00;99.90;;;;;;5011014;28;20026;-64
2023/02/15 09:31:43;;;;;;;4.47;1.30;;;22.00;99.90;;;;;;4993288;28;20453;-63
2023/02/15 09:34:12;;;;;;;6.88;1.23;;;22.00;99.90;;;;;;5010728;28;20172;-63
2023/02/15 09:36:41;;;;;;;8.55;1.35;;;21.90;99.90;;;;;;5010852;28;20108;-64
2023/02/15 09:39:17;;;;;;;3.58;1.05;;;21.80;99.90;;;;;;5010720;28;20030;-64
2023/02/15 09:41:53;;;;;;;8.18;1.55;;;21.80;99.90;;;;;;4993427;28;20084;-64
2023/02/15 09:44:44;;;;;;;11.02;1.52;;;21.70;99.90;;;;;;5010063;28;20415;-64
2023/02/15 09:47:38;;;;;;;10.50;1.50;;;21.60;99.90;;;;;;4983370;28;20487;-63
2023/02/15 09:50:47;;;;;;;3.70;1.13;;;21.50;99.90;;;;;;5011394;28;20751;-63
2023/02/15 09:53:47;;;;;;;6.07;1.20;;;21.50;99.90;;;;;;5010340;28;20141;-63
2023/02/15 09:56:37;;;;;;;4.22;1.55;;;21.40;99.90;;;;;;5010428;28;20403;-63
2023/02/15 09:59:10;;;;;;;10.75;1.13;;;21.40;99.90;;;;;;5010684;28;20554;-63
2023/02/15 10:01:56;;;;;;;5.30;1.30;;;21.40;99.90;;;;;;5009832;28;20076;-64
2023/02/15 10:04:45;;;;;;;12.27;1.30;;;21.30;99.90;;;;;;5010434;28;20029;-64
2023/02/15 10:07:49;;;;;;;7.55;0.98;;;21.20;99.90;;;;;;5010237;28;20024;-62
2023/02/15 10:10:41;;;;;;;4.85;1.10;;;21.10;99.90;;;;;;5010340;28;20022;-63
2023/02/15 10:13:29;;;;;;;4.82;0.98;;;21.10;99.90;;;;;;5010294;28;20112;-63
2023/02/15 10:16:04;;;;;;;7.18;1.65;;;21.00;99.90;;;;;;5010168;28;20046;-64
2023/02/15 10:18:54;;;;;;;7.55;1.35;;;21.00;99.90;;;;;;5010439;28;20053;-64
2023/02/15 10:21:54;;;;;;;5.32;0.75;;;21.00;99.90;;;;;;5010182;28;20104;-63
2023/02/15 10:24:55;;;;;;;9.10;0.90;;;20.90;99.90;;;;;;5010210;28;20014;-63
2023/02/15 10:27:23;;;;;;;6.13;1.20;;;20.80;99.90;;;;;;5010178;28;20026;-62
2023/02/15 10:30:11;;;;;;;9.77;1.10;;;20.80;99.90;;;;;;5009896;28;20026;-63
2023/02/15 10:33:09;;;;;;;14.13;2.20;;;20.70;99.90;;;;;;5086535;27;20789;-63
2023/02/15 10:36:06;;;;;;;7.40;1.25;;;20.60;99.90;;;;;;5086929;28;20028;-64
2023/02/15 10:38:52;;;;;;;6.03;1.17;;;20.50;99.90;;;;;;5086867;28;20024;-63
2023/02/15 10:41:23;;;;;;;7.75;1.08;;;20.40;99.90;;;;;;5085237;28;20481;-63
2023/02/15 10:44:11;;;;;;;7.82;1.05;;;20.40;99.90;;;;;;5085745;28;20024;-63
2023/02/15 10:47:15;;;;;;;5.18;1.65;;;20.30;99.90;;;;;;5086315;28;20074;-64
2023/02/15 10:50:22;;;;;;;3.53;1.20;;;20.20;99.90;;;;;;5086089;28;20482;-63
2023/02/15 10:52:56;;;;;;;5.15;1.10;;;20.10;99.90;;;;;;5053417;28;20079;-63
2023/02/15 10:55:51;;;;;;;11.27;1.35;;;20.00;99.90;;;;;;5086007;28;20507;-64
2023/02/15 10:58:28;;;;;;;5.13;1.70;;;19.90;99.90;;;;;;5086166;28;20029;-63
2023/02/15 11:01:07;;;;;;;10.80;2.20;;;19.80;99.90;;;;;;5085877;28;20024;-63
2023/02/15 11:03:59;;;;;;;5.28;1.75;;;19.80;99.90;;;;;;5073232;28;20488;-62
2023/02/15 11:06:27;;;;;;;9.23;1.30;;;19.70;99.90;;;;;;5066047;28;20037;-62
2023/02/15 11:09:09;;;;;;;6.43;1.30;;;19.60;99.90;;;;;;5065770;28;20132;-63
2023/02/15 11:11:46;;;;;;;6.47;1.48;;;19.60;99.90;;;;;;5065776;28;20037;-65
2023/02/15 11:14:38;;;;;;;6.82;1.20;;;19.50;99.90;;;;;;5065628;28;20070;-63
2023/02/15 11:17:30;;;;;;;5.05;1.85;;;19.60;99.90;;;;;;5065992;28;20027;-63
2023/02/15 11:20:25;;;;;;;7.72;1.27;;;19.50;99.90;;;;;;5065452;28;20428;-63
2023/02/15 11:22:53;;;;;;;6.75;1.02;;;19.50;99.90;;;;;;5065133;28;20118;-64
2023/02/15 11:25:36;;;;;;;8.82;0.88;;;19.40;99.90;;;;;;5065325;28;20116;-64
2023/02/15 11:28:11;;;;;;;6.30;2.20;;;19.30;99.90;;;;;;5064627;28;20024;-64
2023/02/15 11:30:51;;;;;;;7.45;1.30;;;19.30;99.90;;;;;;5065009;28;20469;-62
2023/02/15 11:33:34;;;;;;;7.32;1.65;;;19.20;99.90;;;;;;5065196;28;20043;-62
2023/02/15 11:36:23;;;;;;;4.53;1.40;;;19.10;99.90;;;;;;5065073;28;20021;-62
2023/02/15 11:39:13;;;;;;;8.75;1.20;;;19.00;99.90;;;;;;5065104;28;20029;-62
2023/02/15 11:41:53;;;;;;;6.70;1.60;;;18.90;99.90;;;;;;5064960;28;20017;-63
2023/02/15 11:44:25;;;;;;;6.55;1.52;;;18.80;99.90;;;;;;5051412;28;20568;-63
2023/02/15 11:46:53;;;;;;;11.43;1.30;;;18.70;99.90;;;;;;5051915;28;20108;-63
2023/02/15 11:49:33;;;;;;;3.35;1.10;;;18.60;99.90;;;;;;5050291;28;20029;-63
2023/02/15 11:52:07;;;;;;;7.63;1.27;;;18.50;99.90;;;;;;5051384;28;20044;-63
2023/02/15 11:54:39;;;;;;;6.95;1.38;;;18.50;99.90;;;;;;5052083;28;20083;-63
2023/02/15 11:57:17;;;;;;;11.98;1.70;;;18.40;99.90;;;;;;5052214;28;20712;-63
2023/02/15 12:00:09;;;;;;;9.07;1.67;;;18.30;99.90;;;;;;5051503;28;20021;-64
2023/02/15 12:02:39;;;;;;;8.77;1.30;;;18.30;99.90;;;;;;5051896;28;20025;-63
2023/02/15 12:05:22;;;;;;;12.20;1.80;;;18.20;99.90;;;;;;5052099;28;20028;-64
2023/02/15 12:08:22;;;;;;;7.93;1.48;;;18.20;99.90;;;;;;5051376;28;20033;-64
2023/02/15 12:11:03;;;;;;;11.15;1.63;;;18.10;99.90;;;;;;5046839;28;20060;-63
2023/02/15 12:13:30;;;;;;;7.68;1.00;;;18.10;99.90;;;;;;5051126;28;20028;-63
2023/02/15 12:16:05;;;;;;;9.48;1.40;;;18.00;99.90;;;;;;5051089;28;20035;-63
2023/02/15 12:18:44;;;;;;;7.97;1.42;;;17.90;99.90;;;;;;5051186;28;20027;-63
2023/02/15 12:21:31;;;;;;;10.15;1.27;;;17.90;99.90;;;;;;5050963;28;20029;-61
2023/02/15 12:24:13;;;;;;;5.30;1.00;;;17.80;99.90;;;;;;5050911;28;20384;-62
2023/02/15 12:26:41;;;;;;;6.55;1.20;;;17.70;99.90;;;;;;5050948;28;20021;-63
2023/02/15 12:29:20;;;;;;;7.18;1.90;;;17.60;99.90;;;;;;5051010;28;20031;-63
2023/02/15 12:31:50;;;;;;;5.18;1.20;;;17.60;99.90;;;;;;5050607;28;20057;-63
2023/02/15 12:34:41;;;;;;;5.43;1.10;;;17.50;99.90;;;;;;5050982;28;20021;-63
2023/02/15 12:37:31;;;;;;;8.18;1.45;;;17.50;99.90;;;;;;5050816;28;20051;-63
2023/02/15 12:40:01;;;;;;;3.95;1.00;;;17.50;99.90;;;;;;5049600;28;20123;-63
2023/02/15 12:42:41;;;;;;;7.78;1.20;;;17.50;99.90;;;;;;5050942;28;20055;-63
2023/02/15 12:45:36;;;;;;;7.95;1.48;;;17.50;99.90;;;;;;5049452;28;20022;-63
2023/02/15 12:48:15;;;;;;;7.18;1.27;;;17.50;99.90;;;;;;5048564;28;20037;-62
2023/02/15 12:50:45;;;;;;;5.72;1.38;;;17.50;99.90;;;;;;5050653;28;20021;-62
2023/02/15 12:53:19;;;;;;;11.48;1.95;;;17.50;99.90;;;;;;5050423;28;20029;-63
2023/02/15 12:55:52;;;;;;;;;;;17.50;99.90;;;;;;5050081;28;20044;-62
2023/02/15 12:58:23;;;;;;;6.20;0.93;;;17.40;99.90;;;;;;5050304;28;20285;-62
2023/02/15 13:01:03;;;;;;;4.43;1.08;;;17.40;99.90;;;;;;5050555;28;20036;-62
2023/02/15 13:03:30;;;;;;;9.88;1.77;;;17.40;99.90;;;;;;5050330;28;20017;-62
2023/02/15 13:05:59;;;;;;;8.65;1.27;;;17.40;99.90;;;;;;5050784;28;20033;-61
2023/02/15 13:08:31;;;;;;;9.50;1.20;;;17.30;99.90;;;;;;5050879;28;20025;-61
2023/02/15 13:11:04;;;;;;;7.28;1.52;;;17.30;99.90;;;;;;5050688;28;20057;-62
2023/02/15 13:13:36;;;;;;;8.57;1.20;;;17.20;99.90;;;;;;5050808;28;20017;-63
2023/02/15 13:16:07;;;;;;;4.85;1.40;;;17.20;99.90;;;;;;5051231;28;20077;-62
2023/02/15 13:18:38;;;;;;;14.27;1.58;;;17.10;99.90;;;;;;5051155;28;20021;-62
2023/02/15 13:21:13;;;;;;;8.65;1.23;;;17.10;99.90;;;;;;5051060;28;20036;-62
2023/02/15 13:23:46;;;;;;;9.38;1.08;;;17.20;99.90;;;;;;5050600;28;20013;-62
2023/02/15 13:26:21;;;;;;;8.52;1.98;;;17.20;99.90;;;;;;5050649;28;20393;-62
2023/02/15 13:28:52;;;;;;;13.23;2.35;;;17.30;99.90;;;;;;5050554;28;20027;-62
2023/02/15 13:31:23;;;;;;;5.32;1.35;;;17.40;99.90;;;;;;5050215;28;20611;-62
2023/02/15 13:34:09;;;;;;;7.65;1.45;;;17.50;99.90;;;;;;5050378;28;20504;-62
2023/02/15 13:37:02;;;;;;;7.45;2.30;;;17.50;99.90;;;;;;5050746;28;20040;-62
2023/02/15 13:39:51;;;;;;;10.93;1.98;;;17.50;99.90;;;;;;5047844;28;20029;-62
2023/02/15 13:42:31;;;;;;;10.45;1.92;;;17.50;99.90;;;;;;5050285;28;20067;-62
2023/02/15 13:45:33;;;;;;;9.00;2.22;;;17.40;99.90;;;;;;5050208;28;20017;-62
2023/02/15 13:48:19;;;;;;;11.07;2.47;;;17.40;99.90;;;;;;5050194;28;20079;-63
2023/02/15 13:51:24;;;;;;;6.18;1.42;;;17.40;99.90;;;;;;5050131;28;20029;-62
2023/02/15 13:54:18;;;;;;;10.35;2.33;;;17.40;99.90;;;;;;5047107;28;20383;-62